Dorchester, NE (68343)

4:14 PM CDT on September 01, 2014 (GMT -0500)
3 Miles East of Friend | Change Station
CLOSE
Current Station
Personal Weather Station
Location: Friend, NE
Elevation: 1531 ft
Nearby Weather Stations
Active Advisory: Flood Warning Active Notice: Record Report

Elev 1531 ft 40.66 °N, 97.22 °W | Updated 1 second ago

Overcast
Overcast
74.6 °F
Feels Like 77 °F
N
3.7
Wind Variable Wind from WSW
Gusts 4.6 mph

Today
High -- | Low -- °F
--% Chance of Precip.
Yesterday
High -- | Low -- °F
Precip. -- in
6:55 AM 8:00 PM
Waxing Crescent, 44% visible
Pressure 29.86 in
Visibility 10.0 miles
Clouds Scattered Clouds 12000 ft
Heat Index 77 °F
Dew Point 63 °F
Humidity 67%
Rainfall 0.00 in
Snow Depth Not available.
UV 1.4 out of 12
Pollen 6.60 out of 12
Air Quality Not available.
Flu Activity Not available.
METAR KLNK 012054Z 24004KT 10SM SCT120 25/15 A2989 RMK AO2 SLP111 T02500150 58003

More Conditions Fewer Conditions

Pressure 29.86 in
Visibility 10.0 miles
Clouds Scattered Clouds 12000 ft
Heat Index 77 °F
Dew Point 63 °F
Humidity 67%
Rainfall 0.00 in
Snow Depth Not available.
UV 1.4 out of 12
Pollen 6.60 out of 12
Air Quality Not available.
Flu Activity Not available.
METAR KLNK 012054Z 24004KT 10SM SCT120 25/15 A2989 RMK AO2 SLP111 T02500150 58003

More Conditions Fewer Conditions

10-Day Weather Forecast

Almanac

Astronomy

Sep. 01, 2014 Rise Set
Actual Time 6:55 AM CDT 8:00 PM CDT
Civil Twilight 6:27 AM CDT 8:28 PM CDT
Nautical Twilight 5:53 AM CDT 9:01 PM CDT
Astronomical Twilight 5:18 AM CDT 9:36 PM CDT
Moon 1:44 PM CDT No Moon Set
Length of Visible Light 14h 01m
Length of Day
13h 04m
Tomorrow will be 2m 36s shorter.
Waxing Crescent, 44% of the Moon is Illuminated
Today
Waxing Crescent
Sep 2
First Quarter
Sep 8
Full
Sep 15
Last Quarter
Sep 24
New

Today's Extremes

State Highs State Lows

Community

WunderPhotos

Upload Photos

1,749,409 photos uploaded!

WunderBlogs® & News

Nearby

Snow Depth

Station Depth Elevation
No new snow has been reported.

Earthquake Activity

City Distance Mag. Time & Date
No recent earthquake activity has been reported nearby.
Minimum magnitude displayed is 2.5.

Coastal Water Temperatures

Place Temperature
No Stations Reporting

Nearby Weather Stations